<?xml version="1.0" encoding="utf-8"?>
<gpx xmlns:xsi="http://www.w3.org/2001/XMLSchema-instance" xmlns:xsd="http://www.w3.org/2001/XMLSchema" version="1.1" creator="Shapelink.com" xmlns="http://www.topografix.com/GPX/1/1" xmlns:gpxtpx="http://www.garmin.com/xmlschemas/TrackPointExtension/v1">
  <metadata>
    <name>Sykling 19.00 km, 2012-05-30</name>
    <desc></desc>
    <author><name>Mikael Blom</name></author> 
    <time>2012-05-30T17:13:57Z</time>
  </metadata>
  <trk>
    <name>Sykling 19.00 km, 2012-05-30</name>
    <trkseg>
      <trkpt lat="59.9762378" lon="17.7396226">
        <ele>34.7449</ele>
        <time>2012-05-30T17:13:57Z</time>
      </trkpt>
      <trkpt lat="59.9760637" lon="17.7395226">
        <ele>30.8995</ele>
        <time>2012-05-30T17:14:01Z</time>
      </trkpt>
      <trkpt lat="59.9759991" lon="17.7394117">
        <ele>29.9381</ele>
        <time>2012-05-30T17:14:02Z</time>
      </trkpt>
      <trkpt lat="59.9754688" lon="17.7384125">
        <ele>27.5349</ele>
        <time>2012-05-30T17:14:10Z</time>
      </trkpt>
      <trkpt lat="59.9751229" lon="17.7378045">
        <ele>28.0155</ele>
        <time>2012-05-30T17:14:16Z</time>
      </trkpt>
      <trkpt lat="59.9747131" lon="17.7369444">
        <ele>30.4188</ele>
        <time>2012-05-30T17:14:24Z</time>
      </trkpt>
      <trkpt lat="59.9744823" lon="17.736169">
        <ele>31.8607</ele>
        <time>2012-05-30T17:14:30Z</time>
      </trkpt>
      <trkpt lat="59.9743439" lon="17.7353807">
        <ele>33.3029</ele>
        <time>2012-05-30T17:14:36Z</time>
      </trkpt>
      <trkpt lat="59.9742758" lon="17.7344927">
        <ele>38.1094</ele>
        <time>2012-05-30T17:14:42Z</time>
      </trkpt>
      <trkpt lat="59.9742952" lon="17.7336558">
        <ele>39.0707</ele>
        <time>2012-05-30T17:14:48Z</time>
      </trkpt>
      <trkpt lat="59.9743367" lon="17.7326035">
        <ele>38.5901</ele>
        <time>2012-05-30T17:14:56Z</time>
      </trkpt>
      <trkpt lat="59.9743525" lon="17.7315054">
        <ele>31.3801</ele>
        <time>2012-05-30T17:15:05Z</time>
      </trkpt>
      <trkpt lat="59.9744049" lon="17.7305035">
        <ele>30.4188</ele>
        <time>2012-05-30T17:15:13Z</time>
      </trkpt>
      <trkpt lat="59.9744865" lon="17.7296528">
        <ele>30.8995</ele>
        <time>2012-05-30T17:15:20Z</time>
      </trkpt>
      <trkpt lat="59.97449" lon="17.7287786">
        <ele>30.4188</ele>
        <time>2012-05-30T17:15:27Z</time>
      </trkpt>
      <trkpt lat="59.9744646" lon="17.7277322">
        <ele>30.4188</ele>
        <time>2012-05-30T17:15:35Z</time>
      </trkpt>
      <trkpt lat="59.9744516" lon="17.726927">
        <ele>30.8995</ele>
        <time>2012-05-30T17:15:42Z</time>
      </trkpt>
      <trkpt lat="59.974435" lon="17.7261657">
        <ele>34.7449</ele>
        <time>2012-05-30T17:15:49Z</time>
      </trkpt>
      <trkpt lat="59.9743905" lon="17.7253378">
        <ele>39.0707</ele>
        <time>2012-05-30T17:15:56Z</time>
      </trkpt>
      <trkpt lat="59.9742755" lon="17.7244589">
        <ele>41.9547</ele>
        <time>2012-05-30T17:16:03Z</time>
      </trkpt>
      <trkpt lat="59.9740397" lon="17.7229418">
        <ele>43.3966</ele>
        <time>2012-05-30T17:16:15Z</time>
      </trkpt>
      <trkpt lat="59.9738207" lon="17.7221423">
        <ele>43.3966</ele>
        <time>2012-05-30T17:16:22Z</time>
      </trkpt>
      <trkpt lat="59.9735388" lon="17.7214654">
        <ele>41.9547</ele>
        <time>2012-05-30T17:16:29Z</time>
      </trkpt>
      <trkpt lat="59.9731629" lon="17.7207977">
        <ele>40.5128</ele>
        <time>2012-05-30T17:16:37Z</time>
      </trkpt>
      <trkpt lat="59.9727298" lon="17.7202904">
        <ele>39.0707</ele>
        <time>2012-05-30T17:16:45Z</time>
      </trkpt>
      <trkpt lat="59.972189" lon="17.7198077">
        <ele>36.6675</ele>
        <time>2012-05-30T17:16:54Z</time>
      </trkpt>
      <trkpt lat="59.9715668" lon="17.7192497">
        <ele>35.2255</ele>
        <time>2012-05-30T17:17:04Z</time>
      </trkpt>
      <trkpt lat="59.9709339" lon="17.7186656">
        <ele>35.2255</ele>
        <time>2012-05-30T17:17:14Z</time>
      </trkpt>
      <trkpt lat="59.9703615" lon="17.718153">
        <ele>34.7449</ele>
        <time>2012-05-30T17:17:23Z</time>
      </trkpt>
      <trkpt lat="59.9696685" lon="17.717571">
        <ele>35.2255</ele>
        <time>2012-05-30T17:17:34Z</time>
      </trkpt>
      <trkpt lat="59.9691914" lon="17.7173237">
        <ele>36.1868</ele>
        <time>2012-05-30T17:17:42Z</time>
      </trkpt>
      <trkpt lat="59.9686152" lon="17.7170908">
        <ele>35.7061</ele>
        <time>2012-05-30T17:17:51Z</time>
      </trkpt>
      <trkpt lat="59.9682685" lon="17.7168336">
        <ele>35.2255</ele>
        <time>2012-05-30T17:17:56Z</time>
      </trkpt>
      <trkpt lat="59.9681308" lon="17.7166606">
        <ele>35.2255</ele>
        <time>2012-05-30T17:17:58Z</time>
      </trkpt>
      <trkpt lat="59.9678181" lon="17.7160459">
        <ele>35.7061</ele>
        <time>2012-05-30T17:18:03Z</time>
      </trkpt>
      <trkpt lat="59.9676327" lon="17.7154129">
        <ele>33.7834</ele>
        <time>2012-05-30T17:18:07Z</time>
      </trkpt>
      <trkpt lat="59.9675153" lon="17.7145705">
        <ele>30.8995</ele>
        <time>2012-05-30T17:18:12Z</time>
      </trkpt>
      <trkpt lat="59.967417" lon="17.7138164">
        <ele>28.4962</ele>
        <time>2012-05-30T17:18:18Z</time>
      </trkpt>
      <trkpt lat="59.9672855" lon="17.7130905">
        <ele>28.4962</ele>
        <time>2012-05-30T17:18:25Z</time>
      </trkpt>
      <trkpt lat="59.9670995" lon="17.7124114">
        <ele>31.3801</ele>
        <time>2012-05-30T17:18:32Z</time>
      </trkpt>
      <trkpt lat="59.9668483" lon="17.7117522">
        <ele>32.3416</ele>
        <time>2012-05-30T17:18:39Z</time>
      </trkpt>
      <trkpt lat="59.9665503" lon="17.7108679">
        <ele>32.8223</ele>
        <time>2012-05-30T17:18:47Z</time>
      </trkpt>
      <trkpt lat="59.9662759" lon="17.7098925">
        <ele>32.3416</ele>
        <time>2012-05-30T17:18:55Z</time>
      </trkpt>
      <trkpt lat="59.965944" lon="17.7088099">
        <ele>33.7834</ele>
        <time>2012-05-30T17:19:04Z</time>
      </trkpt>
      <trkpt lat="59.9657149" lon="17.7082745">
        <ele>33.7834</ele>
        <time>2012-05-30T17:19:09Z</time>
      </trkpt>
      <trkpt lat="59.9656056" lon="17.7081012">
        <ele>34.2642</ele>
        <time>2012-05-30T17:19:11Z</time>
      </trkpt>
      <trkpt lat="59.9651682" lon="17.7076873">
        <ele>34.2642</ele>
        <time>2012-05-30T17:19:18Z</time>
      </trkpt>
      <trkpt lat="59.9646525" lon="17.7073129">
        <ele>34.7449</ele>
        <time>2012-05-30T17:19:26Z</time>
      </trkpt>
      <trkpt lat="59.9642808" lon="17.7071565">
        <ele>30.8995</ele>
        <time>2012-05-30T17:19:32Z</time>
      </trkpt>
      <trkpt lat="59.9638371" lon="17.7070754">
        <ele>27.0543</ele>
        <time>2012-05-30T17:19:39Z</time>
      </trkpt>
      <trkpt lat="59.963226" lon="17.7070463">
        <ele>24.1703</ele>
        <time>2012-05-30T17:19:48Z</time>
      </trkpt>
      <trkpt lat="59.9627596" lon="17.7070367">
        <ele>24.1703</ele>
        <time>2012-05-30T17:19:55Z</time>
      </trkpt>
      <trkpt lat="59.9623846" lon="17.706905">
        <ele>25.1317</ele>
        <time>2012-05-30T17:20:01Z</time>
      </trkpt>
      <trkpt lat="59.9618828" lon="17.7065783">
        <ele>26.0929</ele>
        <time>2012-05-30T17:20:09Z</time>
      </trkpt>
      <trkpt lat="59.9615848" lon="17.7062315">
        <ele>27.0543</ele>
        <time>2012-05-30T17:20:14Z</time>
      </trkpt>
      <trkpt lat="59.9612738" lon="17.705665">
        <ele>27.0543</ele>
        <time>2012-05-30T17:20:20Z</time>
      </trkpt>
      <trkpt lat="59.9608798" lon="17.7050642">
        <ele>25.6123</ele>
        <time>2012-05-30T17:20:27Z</time>
      </trkpt>
      <trkpt lat="59.9604414" lon="17.7045363">
        <ele>26.0929</ele>
        <time>2012-05-30T17:20:34Z</time>
      </trkpt>
      <trkpt lat="59.9602535" lon="17.7043134">
        <ele>25.6123</ele>
        <time>2012-05-30T17:20:37Z</time>
      </trkpt>
      <trkpt lat="59.9599681" lon="17.7036746">
        <ele>27.0543</ele>
        <time>2012-05-30T17:20:43Z</time>
      </trkpt>
      <trkpt lat="59.9597495" lon="17.7029189">
        <ele>28.4962</ele>
        <time>2012-05-30T17:20:50Z</time>
      </trkpt>
      <trkpt lat="59.9595576" lon="17.7022689">
        <ele>28.4962</ele>
        <time>2012-05-30T17:20:56Z</time>
      </trkpt>
      <trkpt lat="59.9593848" lon="17.7016059">
        <ele>28.0155</ele>
        <time>2012-05-30T17:21:02Z</time>
      </trkpt>
      <trkpt lat="59.9592273" lon="17.7005046">
        <ele>29.4575</ele>
        <time>2012-05-30T17:21:10Z</time>
      </trkpt>
      <trkpt lat="59.9591164" lon="17.6992106">
        <ele>32.8223</ele>
        <time>2012-05-30T17:21:19Z</time>
      </trkpt>
      <trkpt lat="59.9590897" lon="17.6984241">
        <ele>32.3416</ele>
        <time>2012-05-30T17:21:25Z</time>
      </trkpt>
      <trkpt lat="59.9590222" lon="17.697618">
        <ele>29.9381</ele>
        <time>2012-05-30T17:21:31Z</time>
      </trkpt>
      <trkpt lat="59.9588513" lon="17.6967531">
        <ele>28.9769</ele>
        <time>2012-05-30T17:21:37Z</time>
      </trkpt>
      <trkpt lat="59.9585955" lon="17.6959917">
        <ele>28.4962</ele>
        <time>2012-05-30T17:21:43Z</time>
      </trkpt>
      <trkpt lat="59.9580929" lon="17.6946578">
        <ele>27.0543</ele>
        <time>2012-05-30T17:21:54Z</time>
      </trkpt>
      <trkpt lat="59.9575805" lon="17.6931898">
        <ele>26.5736</ele>
        <time>2012-05-30T17:22:06Z</time>
      </trkpt>
      <trkpt lat="59.9571656" lon="17.6919921">
        <ele>26.5736</ele>
        <time>2012-05-30T17:22:16Z</time>
      </trkpt>
      <trkpt lat="59.9568231" lon="17.6909856">
        <ele>28.4962</ele>
        <time>2012-05-30T17:22:25Z</time>
      </trkpt>
      <trkpt lat="59.95654" lon="17.6901548">
        <ele>28.9769</ele>
        <time>2012-05-30T17:22:34Z</time>
      </trkpt>
      <trkpt lat="59.956315" lon="17.6895968">
        <ele>29.4575</ele>
        <time>2012-05-30T17:22:40Z</time>
      </trkpt>
      <trkpt lat="59.95624" lon="17.689374">
        <ele>29.4575</ele>
        <time>2012-05-30T17:22:42Z</time>
      </trkpt>
      <trkpt lat="59.9560885" lon="17.6885361">
        <ele>29.4575</ele>
        <time>2012-05-30T17:22:48Z</time>
      </trkpt>
      <trkpt lat="59.9558673" lon="17.6871083">
        <ele>28.4962</ele>
        <time>2012-05-30T17:22:58Z</time>
      </trkpt>
      <trkpt lat="59.9557054" lon="17.6859545">
        <ele>28.0155</ele>
        <time>2012-05-30T17:23:06Z</time>
      </trkpt>
      <trkpt lat="59.9555592" lon="17.684802">
        <ele>27.5349</ele>
        <time>2012-05-30T17:23:14Z</time>
      </trkpt>
      <trkpt lat="59.9553239" lon="17.6835771">
        <ele>25.6123</ele>
        <time>2012-05-30T17:23:23Z</time>
      </trkpt>
      <trkpt lat="59.9550709" lon="17.6826788">
        <ele>26.0929</ele>
        <time>2012-05-30T17:23:30Z</time>
      </trkpt>
      <trkpt lat="59.95488" lon="17.6820952">
        <ele>26.0929</ele>
        <time>2012-05-30T17:23:35Z</time>
      </trkpt>
      <trkpt lat="59.9546516" lon="17.681719">
        <ele>26.0929</ele>
        <time>2012-05-30T17:23:39Z</time>
      </trkpt>
      <trkpt lat="59.9546078" lon="17.6815975">
        <ele>26.0929</ele>
        <time>2012-05-30T17:23:40Z</time>
      </trkpt>
      <trkpt lat="59.9542829" lon="17.6805586">
        <ele>26.0929</ele>
        <time>2012-05-30T17:23:48Z</time>
      </trkpt>
      <trkpt lat="59.9538276" lon="17.6792112">
        <ele>25.6123</ele>
        <time>2012-05-30T17:23:59Z</time>
      </trkpt>
      <trkpt lat="59.9535001" lon="17.6782588">
        <ele>27.0543</ele>
        <time>2012-05-30T17:24:07Z</time>
      </trkpt>
      <trkpt lat="59.9531392" lon="17.6772553">
        <ele>27.5349</ele>
        <time>2012-05-30T17:24:16Z</time>
      </trkpt>
      <trkpt lat="59.9528361" lon="17.6765005">
        <ele>28.0155</ele>
        <time>2012-05-30T17:24:23Z</time>
      </trkpt>
      <trkpt lat="59.9525792" lon="17.6757753">
        <ele>29.4575</ele>
        <time>2012-05-30T17:24:30Z</time>
      </trkpt>
      <trkpt lat="59.9524181" lon="17.6753635">
        <ele>30.4188</ele>
        <time>2012-05-30T17:24:35Z</time>
      </trkpt>
      <trkpt lat="59.9523408" lon="17.6751205">
        <ele>30.4188</ele>
        <time>2012-05-30T17:24:38Z</time>
      </trkpt>
      <trkpt lat="59.9522271" lon="17.6744466">
        <ele>29.4575</ele>
        <time>2012-05-30T17:24:44Z</time>
      </trkpt>
      <trkpt lat="59.9520716" lon="17.6736166">
        <ele>30.4188</ele>
        <time>2012-05-30T17:24:50Z</time>
      </trkpt>
      <trkpt lat="59.9519125" lon="17.6724785">
        <ele>29.9381</ele>
        <time>2012-05-30T17:24:58Z</time>
      </trkpt>
      <trkpt lat="59.9518509" lon="17.6715779">
        <ele>28.4962</ele>
        <time>2012-05-30T17:25:04Z</time>
      </trkpt>
      <trkpt lat="59.9518442" lon="17.6714243">
        <ele>28.0155</ele>
        <time>2012-05-30T17:25:05Z</time>
      </trkpt>
      <trkpt lat="59.9517603" lon="17.6707781">
        <ele>26.0929</ele>
        <time>2012-05-30T17:25:09Z</time>
      </trkpt>
      <trkpt lat="59.9517747" lon="17.6704324">
        <ele>25.6123</ele>
        <time>2012-05-30T17:25:11Z</time>
      </trkpt>
      <trkpt lat="59.9518214" lon="17.6697965">
        <ele>24.1703</ele>
        <time>2012-05-30T17:25:15Z</time>
      </trkpt>
      <trkpt lat="59.9518373" lon="17.6688626">
        <ele>23.209</ele>
        <time>2012-05-30T17:25:21Z</time>
      </trkpt>
      <trkpt lat="59.9517295" lon="17.6682594">
        <ele>22.7283</ele>
        <time>2012-05-30T17:25:25Z</time>
      </trkpt>
      <trkpt lat="59.951596" lon="17.6680863">
        <ele>22.2476</ele>
        <time>2012-05-30T17:25:27Z</time>
      </trkpt>
      <trkpt lat="59.9513458" lon="17.6680878">
        <ele>22.7283</ele>
        <time>2012-05-30T17:25:30Z</time>
      </trkpt>
      <trkpt lat="59.9507318" lon="17.6682652">
        <ele>23.6896</ele>
        <time>2012-05-30T17:25:38Z</time>
      </trkpt>
      <trkpt lat="59.9502742" lon="17.6682717">
        <ele>25.1317</ele>
        <time>2012-05-30T17:25:44Z</time>
      </trkpt>
      <trkpt lat="59.9497588" lon="17.6681073">
        <ele>25.1317</ele>
        <time>2012-05-30T17:25:51Z</time>
      </trkpt>
      <trkpt lat="59.9491713" lon="17.6677823">
        <ele>25.6123</ele>
        <time>2012-05-30T17:25:59Z</time>
      </trkpt>
      <trkpt lat="59.948631" lon="17.6674695">
        <ele>26.5736</ele>
        <time>2012-05-30T17:26:07Z</time>
      </trkpt>
      <trkpt lat="59.9480477" lon="17.6671354">
        <ele>28.0155</ele>
        <time>2012-05-30T17:26:16Z</time>
      </trkpt>
      <trkpt lat="59.9474636" lon="17.666842">
        <ele>28.4962</ele>
        <time>2012-05-30T17:26:25Z</time>
      </trkpt>
      <trkpt lat="59.9469361" lon="17.6665944">
        <ele>28.9769</ele>
        <time>2012-05-30T17:26:33Z</time>
      </trkpt>
      <trkpt lat="59.9465853" lon="17.6665132">
        <ele>28.9769</ele>
        <time>2012-05-30T17:26:38Z</time>
      </trkpt>
      <trkpt lat="59.9463067" lon="17.6663895">
        <ele>29.4575</ele>
        <time>2012-05-30T17:26:42Z</time>
      </trkpt>
      <trkpt lat="59.9457518" lon="17.6661347">
        <ele>30.4188</ele>
        <time>2012-05-30T17:26:50Z</time>
      </trkpt>
      <trkpt lat="59.944986" lon="17.6658373">
        <ele>30.8995</ele>
        <time>2012-05-30T17:27:01Z</time>
      </trkpt>
      <trkpt lat="59.9443926" lon="17.6656088">
        <ele>31.3801</ele>
        <time>2012-05-30T17:27:10Z</time>
      </trkpt>
      <trkpt lat="59.9438341" lon="17.6653414">
        <ele>31.8607</ele>
        <time>2012-05-30T17:27:19Z</time>
      </trkpt>
      <trkpt lat="59.9433103" lon="17.6649722">
        <ele>32.8223</ele>
        <time>2012-05-30T17:27:28Z</time>
      </trkpt>
      <trkpt lat="59.9429" lon="17.6645867">
        <ele>32.8223</ele>
        <time>2012-05-30T17:27:35Z</time>
      </trkpt>
      <trkpt lat="59.9425009" lon="17.6641199">
        <ele>34.2642</ele>
        <time>2012-05-30T17:27:42Z</time>
      </trkpt>
      <trkpt lat="59.9419869" lon="17.6633854">
        <ele>34.7449</ele>
        <time>2012-05-30T17:27:52Z</time>
      </trkpt>
      <trkpt lat="59.9414907" lon="17.6625493">
        <ele>33.7834</ele>
        <time>2012-05-30T17:28:02Z</time>
      </trkpt>
      <trkpt lat="59.9411163" lon="17.6622004">
        <ele>33.3029</ele>
        <time>2012-05-30T17:28:08Z</time>
      </trkpt>
      <trkpt lat="59.9407526" lon="17.6620839">
        <ele>33.3029</ele>
        <time>2012-05-30T17:28:13Z</time>
      </trkpt>
      <trkpt lat="59.9405001" lon="17.6618019">
        <ele>32.3416</ele>
        <time>2012-05-30T17:28:17Z</time>
      </trkpt>
      <trkpt lat="59.9404332" lon="17.6613491">
        <ele>31.8607</ele>
        <time>2012-05-30T17:28:20Z</time>
      </trkpt>
      <trkpt lat="59.9404728" lon="17.6608629">
        <ele>31.8607</ele>
        <time>2012-05-30T17:28:23Z</time>
      </trkpt>
      <trkpt lat="59.9405064" lon="17.6607187">
        <ele>31.8607</ele>
        <time>2012-05-30T17:28:24Z</time>
      </trkpt>
      <trkpt lat="59.9405913" lon="17.6602112">
        <ele>32.3416</ele>
        <time>2012-05-30T17:28:28Z</time>
      </trkpt>
      <trkpt lat="59.9404969" lon="17.6597365">
        <ele>32.3416</ele>
        <time>2012-05-30T17:28:32Z</time>
      </trkpt>
      <trkpt lat="59.9404329" lon="17.6595345">
        <ele>32.3416</ele>
        <time>2012-05-30T17:28:34Z</time>
      </trkpt>
      <trkpt lat="59.9401927" lon="17.6584189">
        <ele>34.2642</ele>
        <time>2012-05-30T17:28:42Z</time>
      </trkpt>
      <trkpt lat="59.9399494" lon="17.6573262">
        <ele>35.7061</ele>
        <time>2012-05-30T17:28:51Z</time>
      </trkpt>
      <trkpt lat="59.9397485" lon="17.6563386">
        <ele>37.1481</ele>
        <time>2012-05-30T17:29:00Z</time>
      </trkpt>
      <trkpt lat="59.9394773" lon="17.6550371">
        <ele>37.6287</ele>
        <time>2012-05-30T17:29:12Z</time>
      </trkpt>
      <trkpt lat="59.9393214" lon="17.6542448">
        <ele>37.6287</ele>
        <time>2012-05-30T17:29:19Z</time>
      </trkpt>
      <trkpt lat="59.9391206" lon="17.6532771">
        <ele>37.6287</ele>
        <time>2012-05-30T17:29:27Z</time>
      </trkpt>
      <trkpt lat="59.9387476" lon="17.6518739">
        <ele>37.6287</ele>
        <time>2012-05-30T17:29:38Z</time>
      </trkpt>
      <trkpt lat="59.9383634" lon="17.6507708">
        <ele>36.6675</ele>
        <time>2012-05-30T17:29:47Z</time>
      </trkpt>
      <trkpt lat="59.9380962" lon="17.6500816">
        <ele>37.6287</ele>
        <time>2012-05-30T17:29:53Z</time>
      </trkpt>
      <trkpt lat="59.937816" lon="17.6493305">
        <ele>38.1094</ele>
        <time>2012-05-30T17:30:00Z</time>
      </trkpt>
      <trkpt lat="59.9375543" lon="17.6486259">
        <ele>39.0707</ele>
        <time>2012-05-30T17:30:07Z</time>
      </trkpt>
      <trkpt lat="59.9374376" lon="17.6483532">
        <ele>38.5901</ele>
        <time>2012-05-30T17:30:10Z</time>
      </trkpt>
      <trkpt lat="59.937133" lon="17.647906">
        <ele>38.1094</ele>
        <time>2012-05-30T17:30:16Z</time>
      </trkpt>
      <trkpt lat="59.9366887" lon="17.647383">
        <ele>33.7834</ele>
        <time>2012-05-30T17:30:24Z</time>
      </trkpt>
      <trkpt lat="59.9361675" lon="17.6467008">
        <ele>34.7449</ele>
        <time>2012-05-30T17:30:33Z</time>
      </trkpt>
      <trkpt lat="59.9358257" lon="17.646299">
        <ele>35.2255</ele>
        <time>2012-05-30T17:30:39Z</time>
      </trkpt>
      <trkpt lat="59.9354554" lon="17.64587">
        <ele>36.6675</ele>
        <time>2012-05-30T17:30:45Z</time>
      </trkpt>
      <trkpt lat="59.9351409" lon="17.6454873">
        <ele>37.1481</ele>
        <time>2012-05-30T17:30:50Z</time>
      </trkpt>
      <trkpt lat="59.9347852" lon="17.6450925">
        <ele>35.7061</ele>
        <time>2012-05-30T17:30:56Z</time>
      </trkpt>
      <trkpt lat="59.9344279" lon="17.6445816">
        <ele>34.7449</ele>
        <time>2012-05-30T17:31:02Z</time>
      </trkpt>
      <trkpt lat="59.934077" lon="17.6440917">
        <ele>33.7834</ele>
        <time>2012-05-30T17:31:07Z</time>
      </trkpt>
      <trkpt lat="59.9336086" lon="17.6436074">
        <ele>32.3416</ele>
        <time>2012-05-30T17:31:13Z</time>
      </trkpt>
      <trkpt lat="59.933203" lon="17.6430305">
        <ele>31.3801</ele>
        <time>2012-05-30T17:31:18Z</time>
      </trkpt>
      <trkpt lat="59.9329537" lon="17.6426791">
        <ele>29.4575</ele>
        <time>2012-05-30T17:31:21Z</time>
      </trkpt>
      <trkpt lat="59.9325607" lon="17.642089">
        <ele>26.5736</ele>
        <time>2012-05-30T17:31:26Z</time>
      </trkpt>
      <trkpt lat="59.9319676" lon="17.64153">
        <ele>26.5736</ele>
        <time>2012-05-30T17:31:33Z</time>
      </trkpt>
      <trkpt lat="59.9315388" lon="17.6412413">
        <ele>26.5736</ele>
        <time>2012-05-30T17:31:38Z</time>
      </trkpt>
      <trkpt lat="59.9309435" lon="17.6408177">
        <ele>25.1317</ele>
        <time>2012-05-30T17:31:45Z</time>
      </trkpt>
      <trkpt lat="59.9305879" lon="17.6407773">
        <ele>23.6896</ele>
        <time>2012-05-30T17:31:49Z</time>
      </trkpt>
      <trkpt lat="59.9300623" lon="17.640816">
        <ele>20.8057</ele>
        <time>2012-05-30T17:31:55Z</time>
      </trkpt>
      <trkpt lat="59.9295381" lon="17.6408864">
        <ele>20.325</ele>
        <time>2012-05-30T17:32:01Z</time>
      </trkpt>
      <trkpt lat="59.9290106" lon="17.6409303">
        <ele>21.2864</ele>
        <time>2012-05-30T17:32:07Z</time>
      </trkpt>
      <trkpt lat="59.9284073" lon="17.6410443">
        <ele>22.2476</ele>
        <time>2012-05-30T17:32:14Z</time>
      </trkpt>
      <trkpt lat="59.9276228" lon="17.6411345">
        <ele>23.6896</ele>
        <time>2012-05-30T17:32:23Z</time>
      </trkpt>
      <trkpt lat="59.9267967" lon="17.6412076">
        <ele>23.6896</ele>
        <time>2012-05-30T17:32:33Z</time>
      </trkpt>
      <trkpt lat="59.9259929" lon="17.6413079">
        <ele>24.651</ele>
        <time>2012-05-30T17:32:43Z</time>
      </trkpt>
      <trkpt lat="59.9252361" lon="17.6413975">
        <ele>25.6123</ele>
        <time>2012-05-30T17:32:53Z</time>
      </trkpt>
      <trkpt lat="59.9246134" lon="17.6414671">
        <ele>26.0929</ele>
        <time>2012-05-30T17:33:02Z</time>
      </trkpt>
      <trkpt lat="59.9239975" lon="17.6415379">
        <ele>26.0929</ele>
        <time>2012-05-30T17:33:11Z</time>
      </trkpt>
      <trkpt lat="59.9234371" lon="17.6416193">
        <ele>27.5349</ele>
        <time>2012-05-30T17:33:19Z</time>
      </trkpt>
      <trkpt lat="59.9227806" lon="17.6417064">
        <ele>28.4962</ele>
        <time>2012-05-30T17:33:29Z</time>
      </trkpt>
      <trkpt lat="59.9221895" lon="17.6417856">
        <ele>28.4962</ele>
        <time>2012-05-30T17:33:38Z</time>
      </trkpt>
      <trkpt lat="59.9216622" lon="17.6418618">
        <ele>28.0155</ele>
        <time>2012-05-30T17:33:46Z</time>
      </trkpt>
      <trkpt lat="59.9211306" lon="17.6419208">
        <ele>28.0155</ele>
        <time>2012-05-30T17:33:54Z</time>
      </trkpt>
      <trkpt lat="59.9205373" lon="17.641925">
        <ele>28.9769</ele>
        <time>2012-05-30T17:34:02Z</time>
      </trkpt>
      <trkpt lat="59.9197859" lon="17.641998">
        <ele>28.0155</ele>
        <time>2012-05-30T17:34:12Z</time>
      </trkpt>
      <trkpt lat="59.9193476" lon="17.6420719">
        <ele>26.5736</ele>
        <time>2012-05-30T17:34:18Z</time>
      </trkpt>
      <trkpt lat="59.9186744" lon="17.6421513">
        <ele>25.1317</ele>
        <time>2012-05-30T17:34:27Z</time>
      </trkpt>
      <trkpt lat="59.9180465" lon="17.6422166">
        <ele>22.7283</ele>
        <time>2012-05-30T17:34:35Z</time>
      </trkpt>
      <trkpt lat="59.9173431" lon="17.6422392">
        <ele>22.2476</ele>
        <time>2012-05-30T17:34:43Z</time>
      </trkpt>
      <trkpt lat="59.9172555" lon="17.6422367">
        <ele>21.767</ele>
        <time>2012-05-30T17:34:44Z</time>
      </trkpt>
      <trkpt lat="59.9167459" lon="17.6423412">
        <ele>22.7283</ele>
        <time>2012-05-30T17:34:50Z</time>
      </trkpt>
      <trkpt lat="59.9160947" lon="17.6424275">
        <ele>23.209</ele>
        <time>2012-05-30T17:34:58Z</time>
      </trkpt>
      <trkpt lat="59.9154133" lon="17.642495">
        <ele>23.209</ele>
        <time>2012-05-30T17:35:06Z</time>
      </trkpt>
      <trkpt lat="59.9151892" lon="17.6426293">
        <ele>23.6896</ele>
        <time>2012-05-30T17:35:09Z</time>
      </trkpt>
      <trkpt lat="59.9146565" lon="17.6427387">
        <ele>25.1317</ele>
        <time>2012-05-30T17:35:17Z</time>
      </trkpt>
      <trkpt lat="59.9141817" lon="17.6428335">
        <ele>26.5736</ele>
        <time>2012-05-30T17:35:25Z</time>
      </trkpt>
      <trkpt lat="59.9137476" lon="17.6429309">
        <ele>28.9769</ele>
        <time>2012-05-30T17:35:33Z</time>
      </trkpt>
      <trkpt lat="59.9132554" lon="17.6430304">
        <ele>29.9381</ele>
        <time>2012-05-30T17:35:42Z</time>
      </trkpt>
      <trkpt lat="59.9128369" lon="17.6431158">
        <ele>30.8995</ele>
        <time>2012-05-30T17:35:49Z</time>
      </trkpt>
      <trkpt lat="59.9126407" lon="17.6430599">
        <ele>28.4962</ele>
        <time>2012-05-30T17:35:52Z</time>
      </trkpt>
      <trkpt lat="59.9122058" lon="17.6430842">
        <ele>27.5349</ele>
        <time>2012-05-30T17:35:58Z</time>
      </trkpt>
      <trkpt lat="59.9117523" lon="17.6432113">
        <ele>28.4962</ele>
        <time>2012-05-30T17:36:05Z</time>
      </trkpt>
      <trkpt lat="59.9111597" lon="17.6433389">
        <ele>28.0155</ele>
        <time>2012-05-30T17:36:14Z</time>
      </trkpt>
      <trkpt lat="59.910667" lon="17.6434297">
        <ele>27.0543</ele>
        <time>2012-05-30T17:36:21Z</time>
      </trkpt>
      <trkpt lat="59.9104489" lon="17.6435328">
        <ele>27.5349</ele>
        <time>2012-05-30T17:36:24Z</time>
      </trkpt>
      <trkpt lat="59.9101621" lon="17.6435951">
        <ele>27.5349</ele>
        <time>2012-05-30T17:36:28Z</time>
      </trkpt>
      <trkpt lat="59.9099324" lon="17.6435421">
        <ele>25.6123</ele>
        <time>2012-05-30T17:36:31Z</time>
      </trkpt>
      <trkpt lat="59.9095129" lon="17.6435726">
        <ele>24.1703</ele>
        <time>2012-05-30T17:36:36Z</time>
      </trkpt>
      <trkpt lat="59.9088514" lon="17.6436643">
        <ele>24.651</ele>
        <time>2012-05-30T17:36:44Z</time>
      </trkpt>
      <trkpt lat="59.9081955" lon="17.6436473">
        <ele>25.1317</ele>
        <time>2012-05-30T17:36:52Z</time>
      </trkpt>
      <trkpt lat="59.9075898" lon="17.643555">
        <ele>25.1317</ele>
        <time>2012-05-30T17:36:59Z</time>
      </trkpt>
      <trkpt lat="59.9066996" lon="17.6433623">
        <ele>24.1703</ele>
        <time>2012-05-30T17:37:09Z</time>
      </trkpt>
      <trkpt lat="59.9060567" lon="17.6431158">
        <ele>22.7283</ele>
        <time>2012-05-30T17:37:16Z</time>
      </trkpt>
      <trkpt lat="59.9055103" lon="17.642905">
        <ele>22.2476</ele>
        <time>2012-05-30T17:37:22Z</time>
      </trkpt>
      <trkpt lat="59.9050699" lon="17.6427614">
        <ele>21.767</ele>
        <time>2012-05-30T17:37:27Z</time>
      </trkpt>
      <trkpt lat="59.9045575" lon="17.6424294">
        <ele>21.2864</ele>
        <time>2012-05-30T17:37:33Z</time>
      </trkpt>
      <trkpt lat="59.9038485" lon="17.642027">
        <ele>22.7283</ele>
        <time>2012-05-30T17:37:42Z</time>
      </trkpt>
      <trkpt lat="59.9037042" lon="17.6419617">
        <ele>23.209</ele>
        <time>2012-05-30T17:37:44Z</time>
      </trkpt>
      <trkpt lat="59.9034335" lon="17.6418985">
        <ele>23.6896</ele>
        <time>2012-05-30T17:37:48Z</time>
      </trkpt>
      <trkpt lat="59.9029295" lon="17.6416121">
        <ele>23.6896</ele>
        <time>2012-05-30T17:37:55Z</time>
      </trkpt>
      <trkpt lat="59.9022662" lon="17.6411941">
        <ele>24.651</ele>
        <time>2012-05-30T17:38:04Z</time>
      </trkpt>
      <trkpt lat="59.9016302" lon="17.6406734">
        <ele>25.1317</ele>
        <time>2012-05-30T17:38:13Z</time>
      </trkpt>
      <trkpt lat="59.9010372" lon="17.6401071">
        <ele>25.1317</ele>
        <time>2012-05-30T17:38:22Z</time>
      </trkpt>
      <trkpt lat="59.9003187" lon="17.6393751">
        <ele>24.651</ele>
        <time>2012-05-30T17:38:33Z</time>
      </trkpt>
      <trkpt lat="59.8998133" lon="17.6388721">
        <ele>25.1317</ele>
        <time>2012-05-30T17:38:41Z</time>
      </trkpt>
      <trkpt lat="59.8993837" lon="17.6384463">
        <ele>26.0929</ele>
        <time>2012-05-30T17:38:48Z</time>
      </trkpt>
      <trkpt lat="59.8989349" lon="17.6380233">
        <ele>26.5736</ele>
        <time>2012-05-30T17:38:56Z</time>
      </trkpt>
      <trkpt lat="59.8983988" lon="17.6375408">
        <ele>27.5349</ele>
        <time>2012-05-30T17:39:05Z</time>
      </trkpt>
      <trkpt lat="59.8979279" lon="17.6371488">
        <ele>28.4962</ele>
        <time>2012-05-30T17:39:13Z</time>
      </trkpt>
      <trkpt lat="59.8978069" lon="17.637062">
        <ele>29.4575</ele>
        <time>2012-05-30T17:39:15Z</time>
      </trkpt>
      <trkpt lat="59.8975194" lon="17.6368887">
        <ele>31.3801</ele>
        <time>2012-05-30T17:39:21Z</time>
      </trkpt>
      <trkpt lat="59.8974272" lon="17.6368194">
        <ele>31.3801</ele>
        <time>2012-05-30T17:39:23Z</time>
      </trkpt>
      <trkpt lat="59.8971273" lon="17.6367798">
        <ele>31.8607</ele>
        <time>2012-05-30T17:39:29Z</time>
      </trkpt>
      <trkpt lat="59.8970763" lon="17.6367612">
        <ele>31.3801</ele>
        <time>2012-05-30T17:39:30Z</time>
      </trkpt>
      <trkpt lat="59.8966469" lon="17.6365748">
        <ele>31.8607</ele>
        <time>2012-05-30T17:39:38Z</time>
      </trkpt>
      <trkpt lat="59.8962677" lon="17.6364449">
        <ele>31.3801</ele>
        <time>2012-05-30T17:39:44Z</time>
      </trkpt>
      <trkpt lat="59.8960602" lon="17.6363593">
        <ele>31.8607</ele>
        <time>2012-05-30T17:39:47Z</time>
      </trkpt>
      <trkpt lat="59.8956344" lon="17.6364097">
        <ele>31.8607</ele>
        <time>2012-05-30T17:39:53Z</time>
      </trkpt>
      <trkpt lat="59.8951153" lon="17.6366967">
        <ele>31.8607</ele>
        <time>2012-05-30T17:40:00Z</time>
      </trkpt>
      <trkpt lat="59.8945138" lon="17.6370875">
        <ele>32.8223</ele>
        <time>2012-05-30T17:40:08Z</time>
      </trkpt>
      <trkpt lat="59.8938674" lon="17.6375121">
        <ele>34.2642</ele>
        <time>2012-05-30T17:40:17Z</time>
      </trkpt>
      <trkpt lat="59.8933224" lon="17.637912">
        <ele>33.3029</ele>
        <time>2012-05-30T17:40:25Z</time>
      </trkpt>
      <trkpt lat="59.8928578" lon="17.6381962">
        <ele>33.3029</ele>
        <time>2012-05-30T17:40:32Z</time>
      </trkpt>
      <trkpt lat="59.8925657" lon="17.6382901">
        <ele>30.8995</ele>
        <time>2012-05-30T17:40:36Z</time>
      </trkpt>
      <trkpt lat="59.8920275" lon="17.6384268">
        <ele>28.0155</ele>
        <time>2012-05-30T17:40:42Z</time>
      </trkpt>
      <trkpt lat="59.8913414" lon="17.6384734">
        <ele>26.5736</ele>
        <time>2012-05-30T17:40:49Z</time>
      </trkpt>
      <trkpt lat="59.8905789" lon="17.6383808">
        <ele>25.6123</ele>
        <time>2012-05-30T17:40:57Z</time>
      </trkpt>
      <trkpt lat="59.8899188" lon="17.6381911">
        <ele>24.651</ele>
        <time>2012-05-30T17:41:04Z</time>
      </trkpt>
      <trkpt lat="59.8894172" lon="17.6379852">
        <ele>25.1317</ele>
        <time>2012-05-30T17:41:10Z</time>
      </trkpt>
      <trkpt lat="59.8889272" lon="17.6379972">
        <ele>26.0929</ele>
        <time>2012-05-30T17:41:16Z</time>
      </trkpt>
      <trkpt lat="59.8883841" lon="17.638046">
        <ele>27.5349</ele>
        <time>2012-05-30T17:41:23Z</time>
      </trkpt>
      <trkpt lat="59.8878892" lon="17.6380254">
        <ele>27.0543</ele>
        <time>2012-05-30T17:41:30Z</time>
      </trkpt>
      <trkpt lat="59.8873916" lon="17.637856">
        <ele>25.6123</ele>
        <time>2012-05-30T17:41:37Z</time>
      </trkpt>
      <trkpt lat="59.8867841" lon="17.6375824">
        <ele>24.1703</ele>
        <time>2012-05-30T17:41:45Z</time>
      </trkpt>
      <trkpt lat="59.8863361" lon="17.6373937">
        <ele>23.209</ele>
        <time>2012-05-30T17:41:51Z</time>
      </trkpt>
      <trkpt lat="59.8858414" lon="17.6369962">
        <ele>20.8057</ele>
        <time>2012-05-30T17:41:58Z</time>
      </trkpt>
      <trkpt lat="59.8854094" lon="17.6366099">
        <ele>19.3638</ele>
        <time>2012-05-30T17:42:04Z</time>
      </trkpt>
      <trkpt lat="59.8848301" lon="17.6360823">
        <ele>17.9218</ele>
        <time>2012-05-30T17:42:12Z</time>
      </trkpt>
      <trkpt lat="59.8847611" lon="17.6360235">
        <ele>17.4412</ele>
        <time>2012-05-30T17:42:13Z</time>
      </trkpt>
      <trkpt lat="59.8843661" lon="17.6358451">
        <ele>16.4797</ele>
        <time>2012-05-30T17:42:18Z</time>
      </trkpt>
      <trkpt lat="59.8838667" lon="17.6355938">
        <ele>17.4412</ele>
        <time>2012-05-30T17:42:24Z</time>
      </trkpt>
      <trkpt lat="59.8833689" lon="17.635503">
        <ele>17.9218</ele>
        <time>2012-05-30T17:42:30Z</time>
      </trkpt>
      <trkpt lat="59.8828649" lon="17.6354995">
        <ele>17.9218</ele>
        <time>2012-05-30T17:42:36Z</time>
      </trkpt>
      <trkpt lat="59.8823676" lon="17.6356436">
        <ele>17.9218</ele>
        <time>2012-05-30T17:42:42Z</time>
      </trkpt>
      <trkpt lat="59.8817938" lon="17.6358159">
        <ele>17.4412</ele>
        <time>2012-05-30T17:42:49Z</time>
      </trkpt>
      <trkpt lat="59.8817129" lon="17.6358317">
        <ele>17.4412</ele>
        <time>2012-05-30T17:42:50Z</time>
      </trkpt>
      <trkpt lat="59.8814063" lon="17.6356731">
        <ele>16.4797</ele>
        <time>2012-05-30T17:42:54Z</time>
      </trkpt>
      <trkpt lat="59.8810814" lon="17.6355991">
        <ele>16.4797</ele>
        <time>2012-05-30T17:42:58Z</time>
      </trkpt>
      <trkpt lat="59.8803207" lon="17.6356553">
        <ele>15.999</ele>
        <time>2012-05-30T17:43:07Z</time>
      </trkpt>
      <trkpt lat="59.8796416" lon="17.6357071">
        <ele>15.5184</ele>
        <time>2012-05-30T17:43:15Z</time>
      </trkpt>
      <trkpt lat="59.8789503" lon="17.635742">
        <ele>14.557</ele>
        <time>2012-05-30T17:43:23Z</time>
      </trkpt>
      <trkpt lat="59.8781521" lon="17.6357878">
        <ele>12.1538</ele>
        <time>2012-05-30T17:43:32Z</time>
      </trkpt>
      <trkpt lat="59.877345" lon="17.63583">
        <ele>12.1538</ele>
        <time>2012-05-30T17:43:41Z</time>
      </trkpt>
      <trkpt lat="59.8764971" lon="17.6359015">
        <ele>11.1925</ele>
        <time>2012-05-30T17:43:51Z</time>
      </trkpt>
      <trkpt lat="59.8758241" lon="17.6360349">
        <ele>11.1925</ele>
        <time>2012-05-30T17:43:59Z</time>
      </trkpt>
      <trkpt lat="59.8752674" lon="17.6362911">
        <ele>11.1925</ele>
        <time>2012-05-30T17:44:06Z</time>
      </trkpt>
      <trkpt lat="59.8747213" lon="17.636695">
        <ele>10.7118</ele>
        <time>2012-05-30T17:44:14Z</time>
      </trkpt>
      <trkpt lat="59.8744694" lon="17.6369541">
        <ele>10.7118</ele>
        <time>2012-05-30T17:44:18Z</time>
      </trkpt>
      <trkpt lat="59.87401" lon="17.6373194">
        <ele>9.75061</ele>
        <time>2012-05-30T17:44:25Z</time>
      </trkpt>
      <trkpt lat="59.8736065" lon="17.6377872">
        <ele>9.75061</ele>
        <time>2012-05-30T17:44:32Z</time>
      </trkpt>
      <trkpt lat="59.8732383" lon="17.638171">
        <ele>9.2699</ele>
        <time>2012-05-30T17:44:38Z</time>
      </trkpt>
      <trkpt lat="59.8727428" lon="17.6385724">
        <ele>8.78918</ele>
        <time>2012-05-30T17:44:45Z</time>
      </trkpt>
      <trkpt lat="59.8721224" lon="17.6389261">
        <ele>7.82788</ele>
        <time>2012-05-30T17:44:53Z</time>
      </trkpt>
      <trkpt lat="59.8714707" lon="17.6391848">
        <ele>7.34717</ele>
        <time>2012-05-30T17:45:01Z</time>
      </trkpt>
      <trkpt lat="59.8708215" lon="17.639295">
        <ele>5.42456</ele>
        <time>2012-05-30T17:45:09Z</time>
      </trkpt>
      <trkpt lat="59.8701763" lon="17.6393333">
        <ele>3.50195</ele>
        <time>2012-05-30T17:45:17Z</time>
      </trkpt>
      <trkpt lat="59.8693853" lon="17.6393867">
        <ele>6.86646</ele>
        <time>2012-05-30T17:45:27Z</time>
      </trkpt>
      <trkpt lat="59.8687609" lon="17.6394592">
        <ele>9.75061</ele>
        <time>2012-05-30T17:45:35Z</time>
      </trkpt>
      <trkpt lat="59.8681378" lon="17.6394503">
        <ele>14.0764</ele>
        <time>2012-05-30T17:45:43Z</time>
      </trkpt>
      <trkpt lat="59.8675347" lon="17.6394039">
        <ele>13.5958</ele>
        <time>2012-05-30T17:45:51Z</time>
      </trkpt>
      <trkpt lat="59.8669599" lon="17.6395067">
        <ele>12.1538</ele>
        <time>2012-05-30T17:45:59Z</time>
      </trkpt>
      <trkpt lat="59.8667548" lon="17.6395714">
        <ele>11.6732</ele>
        <time>2012-05-30T17:46:02Z</time>
      </trkpt>
      <trkpt lat="59.866508" lon="17.6397211">
        <ele>12.6344</ele>
        <time>2012-05-30T17:46:06Z</time>
      </trkpt>
      <trkpt lat="59.8662343" lon="17.6399492">
        <ele>10.2312</ele>
        <time>2012-05-30T17:46:11Z</time>
      </trkpt>
      <trkpt lat="59.8660274" lon="17.6402538">
        <ele>11.1925</ele>
        <time>2012-05-30T17:46:15Z</time>
      </trkpt>
      <trkpt lat="59.8658452" lon="17.6404132">
        <ele>10.2312</ele>
        <time>2012-05-30T17:46:19Z</time>
      </trkpt>
      <trkpt lat="59.8657755" lon="17.640262">
        <ele>10.7118</ele>
        <time>2012-05-30T17:46:21Z</time>
      </trkpt>
      <trkpt lat="59.8656894" lon="17.6399429">
        <ele>11.1925</ele>
        <time>2012-05-30T17:46:24Z</time>
      </trkpt>
      <trkpt lat="59.8656021" lon="17.6397141">
        <ele>10.2312</ele>
        <time>2012-05-30T17:46:26Z</time>
      </trkpt>
      <trkpt lat="59.8651047" lon="17.6387635">
        <ele>12.1538</ele>
        <time>2012-05-30T17:46:35Z</time>
      </trkpt>
      <trkpt lat="59.8648313" lon="17.638217">
        <ele>13.5958</ele>
        <time>2012-05-30T17:46:40Z</time>
      </trkpt>
      <trkpt lat="59.8645822" lon="17.6376432">
        <ele>12.1538</ele>
        <time>2012-05-30T17:46:46Z</time>
      </trkpt>
      <trkpt lat="59.8644559" lon="17.6373006">
        <ele>9.2699</ele>
        <time>2012-05-30T17:46:50Z</time>
      </trkpt>
      <trkpt lat="59.864515" lon="17.6370354">
        <ele>10.7118</ele>
        <time>2012-05-30T17:46:53Z</time>
      </trkpt>
      <trkpt lat="59.8644398" lon="17.6368525">
        <ele>8.78918</ele>
        <time>2012-05-30T17:46:56Z</time>
      </trkpt>
      <trkpt lat="59.8643429" lon="17.6366873">
        <ele>9.2699</ele>
        <time>2012-05-30T17:46:58Z</time>
      </trkpt>
      <trkpt lat="59.8640367" lon="17.6358985">
        <ele>8.30859</ele>
        <time>2012-05-30T17:47:05Z</time>
      </trkpt>
      <trkpt lat="59.8638294" lon="17.6356157">
        <ele>9.2699</ele>
        <time>2012-05-30T17:47:09Z</time>
      </trkpt>
      <trkpt lat="59.8636968" lon="17.6352895">
        <ele>12.1538</ele>
        <time>2012-05-30T17:47:12Z</time>
      </trkpt>
      <trkpt lat="59.8634971" lon="17.6347843">
        <ele>12.6344</ele>
        <time>2012-05-30T17:47:17Z</time>
      </trkpt>
      <trkpt lat="59.8634806" lon="17.6346536">
        <ele>15.5184</ele>
        <time>2012-05-30T17:47:19Z</time>
      </trkpt>
      <trkpt lat="59.8634666" lon="17.6345433">
        <ele>15.0377</ele>
        <time>2012-05-30T17:47:21Z</time>
      </trkpt>
      <trkpt lat="59.8634046" lon="17.6343279">
        <ele>21.2864</ele>
        <time>2012-05-30T17:47:25Z</time>
      </trkpt>
      <trkpt lat="59.8633241" lon="17.6339367">
        <ele>34.2642</ele>
        <time>2012-05-30T17:47:31Z</time>
      </trkpt>
      <trkpt lat="59.8631655" lon="17.633618">
        <ele>35.7061</ele>
        <time>2012-05-30T17:47:36Z</time>
      </trkpt>
      <trkpt lat="59.862933" lon="17.633262">
        <ele>30.8995</ele>
        <time>2012-05-30T17:47:41Z</time>
      </trkpt>
      <trkpt lat="59.862751" lon="17.6328326">
        <ele>26.5736</ele>
        <time>2012-05-30T17:47:47Z</time>
      </trkpt>
      <trkpt lat="59.862595" lon="17.6325099">
        <ele>23.209</ele>
        <time>2012-05-30T17:47:53Z</time>
      </trkpt>
      <trkpt lat="59.8625563" lon="17.6324225">
        <ele>23.209</ele>
        <time>2012-05-30T17:47:55Z</time>
      </trkpt>
      <trkpt lat="59.8624688" lon="17.6322504">
        <ele>24.651</ele>
        <time>2012-05-30T17:48:00Z</time>
      </trkpt>
      <trkpt lat="59.8624305" lon="17.632252">
        <ele>23.6896</ele>
        <time>2012-05-30T17:48:01Z</time>
      </trkpt>
      <trkpt lat="59.8621821" lon="17.6324356">
        <ele>15.999</ele>
        <time>2012-05-30T17:48:06Z</time>
      </trkpt>
      <trkpt lat="59.8618957" lon="17.6328991">
        <ele>12.6344</ele>
        <time>2012-05-30T17:48:12Z</time>
      </trkpt>
      <trkpt lat="59.8616104" lon="17.6334175">
        <ele>10.7118</ele>
        <time>2012-05-30T17:48:18Z</time>
      </trkpt>
      <trkpt lat="59.8613236" lon="17.6338367">
        <ele>10.7118</ele>
        <time>2012-05-30T17:48:23Z</time>
      </trkpt>
      <trkpt lat="59.8610167" lon="17.6344335">
        <ele>12.1538</ele>
        <time>2012-05-30T17:48:30Z</time>
      </trkpt>
      <trkpt lat="59.8608748" lon="17.6347074">
        <ele>13.5958</ele>
        <time>2012-05-30T17:48:35Z</time>
      </trkpt>
      <trkpt lat="59.8607662" lon="17.6348639">
        <ele>12.1538</ele>
        <time>2012-05-30T17:48:41Z</time>
      </trkpt>
      <trkpt lat="59.8606438" lon="17.6346724">
        <ele>13.1151</ele>
        <time>2012-05-30T17:48:45Z</time>
      </trkpt>
      <trkpt lat="59.860478" lon="17.6342725">
        <ele>12.6344</ele>
        <time>2012-05-30T17:48:50Z</time>
      </trkpt>
      <trkpt lat="59.8603484" lon="17.6341533">
        <ele>14.0764</ele>
        <time>2012-05-30T17:48:54Z</time>
      </trkpt>
      <trkpt lat="59.8602796" lon="17.6340568">
        <ele>17.4412</ele>
        <time>2012-05-30T17:48:57Z</time>
      </trkpt>
      <trkpt lat="59.8601256" lon="17.6339144">
        <ele>15.5184</ele>
        <time>2012-05-30T17:49:01Z</time>
      </trkpt>
      <trkpt lat="59.8599652" lon="17.6340622">
        <ele>12.1538</ele>
        <time>2012-05-30T17:49:04Z</time>
      </trkpt>
      <trkpt lat="59.8598215" lon="17.6342858">
        <ele>9.75061</ele>
        <time>2012-05-30T17:49:07Z</time>
      </trkpt>
      <trkpt lat="59.8595146" lon="17.63469">
        <ele>13.1151</ele>
        <time>2012-05-30T17:49:12Z</time>
      </trkpt>
      <trkpt lat="59.8594087" lon="17.6348846">
        <ele>12.6344</ele>
        <time>2012-05-30T17:49:14Z</time>
      </trkpt>
      <trkpt lat="59.8589057" lon="17.6359486">
        <ele>9.75061</ele>
        <time>2012-05-30T17:49:24Z</time>
      </trkpt>
      <trkpt lat="59.8587405" lon="17.6361587">
        <ele>12.6344</ele>
        <time>2012-05-30T17:49:27Z</time>
      </trkpt>
      <trkpt lat="59.8585621" lon="17.6365852">
        <ele>13.5958</ele>
        <time>2012-05-30T17:49:32Z</time>
      </trkpt>
      <trkpt lat="59.8583547" lon="17.6370031">
        <ele>14.0764</ele>
        <time>2012-05-30T17:49:37Z</time>
      </trkpt>
      <trkpt lat="59.8580801" lon="17.6374629">
        <ele>14.0764</ele>
        <time>2012-05-30T17:49:43Z</time>
      </trkpt>
      <trkpt lat="59.8579391" lon="17.637843">
        <ele>12.6344</ele>
        <time>2012-05-30T17:49:48Z</time>
      </trkpt>
      <trkpt lat="59.8576301" lon="17.6385427">
        <ele>10.7118</ele>
        <time>2012-05-30T17:49:55Z</time>
      </trkpt>
      <trkpt lat="59.8573161" lon="17.6390877">
        <ele>10.7118</ele>
        <time>2012-05-30T17:50:01Z</time>
      </trkpt>
      <trkpt lat="59.8569156" lon="17.6395202">
        <ele>10.2312</ele>
        <time>2012-05-30T17:50:07Z</time>
      </trkpt>
      <trkpt lat="59.8565096" lon="17.6399259">
        <ele>16.9604</ele>
        <time>2012-05-30T17:50:13Z</time>
      </trkpt>
      <trkpt lat="59.8561362" lon="17.6404009">
        <ele>14.557</ele>
        <time>2012-05-30T17:50:20Z</time>
      </trkpt>
      <trkpt lat="59.8557755" lon="17.6408558">
        <ele>15.5184</ele>
        <time>2012-05-30T17:50:26Z</time>
      </trkpt>
      <trkpt lat="59.8554472" lon="17.6412866">
        <ele>17.4412</ele>
        <time>2012-05-30T17:50:32Z</time>
      </trkpt>
      <trkpt lat="59.8553384" lon="17.6414127">
        <ele>16.9604</ele>
        <time>2012-05-30T17:50:36Z</time>
      </trkpt>
      <trkpt lat="59.8552144" lon="17.6415488">
        <ele>18.8831</ele>
        <time>2012-05-30T17:50:44Z</time>
      </trkpt>
      <trkpt lat="59.8551606" lon="17.641703">
        <ele>15.5184</ele>
        <time>2012-05-30T17:50:49Z</time>
      </trkpt>
      <trkpt lat="59.8551513" lon="17.6417194">
        <ele>15.0377</ele>
        <time>2012-05-30T17:50:50Z</time>
      </trkpt>
      <trkpt lat="59.8550965" lon="17.6417809">
        <ele>12.1538</ele>
        <time>2012-05-30T17:50:56Z</time>
      </trkpt>
      <trkpt lat="59.8550478" lon="17.641842">
        <ele>11.1925</ele>
        <time>2012-05-30T17:51:00Z</time>
      </trkpt>
      <trkpt lat="59.8550224" lon="17.6418584">
        <ele>10.7118</ele>
        <time>2012-05-30T17:51:03Z</time>
      </trkpt>
      <trkpt lat="59.854998" lon="17.6418499">
        <ele>9.2699</ele>
        <time>2012-05-30T17:51:11Z</time>
      </trkpt>
      <trkpt lat="59.8549924" lon="17.6417783">
        <ele>8.78918</ele>
        <time>2012-05-30T17:51:14Z</time>
      </trkpt>
      <trkpt lat="59.8549058" lon="17.6414554">
        <ele>6.86646</ele>
        <time>2012-05-30T17:51:20Z</time>
      </trkpt>
      <trkpt lat="59.8548033" lon="17.6411475">
        <ele>6.86646</ele>
        <time>2012-05-30T17:51:27Z</time>
      </trkpt>
      <trkpt lat="59.854724" lon="17.6410593">
        <ele>5.90527</ele>
        <time>2012-05-30T17:51:32Z</time>
      </trkpt>
      <trkpt lat="59.8547119" lon="17.6410645">
        <ele>5.42456</ele>
        <time>2012-05-30T17:51:33Z</time>
      </trkpt>
      <trkpt lat="59.8546266" lon="17.6411524">
        <ele>1.57935</ele>
        <time>2012-05-30T17:51:41Z</time>
      </trkpt>
      <trkpt lat="59.85457" lon="17.6412228">
        <ele>0</ele>
        <time>2012-05-30T17:51:46Z</time>
      </trkpt>
      <trkpt lat="59.8544742" lon="17.6411897">
        <ele>0</ele>
        <time>2012-05-30T17:51:53Z</time>
      </trkpt>
      <trkpt lat="59.8544282" lon="17.6410888">
        <ele>0</ele>
        <time>2012-05-30T17:51:55Z</time>
      </trkpt>
      <trkpt lat="59.8543028" lon="17.6405668">
        <ele>3.50195</ele>
        <time>2012-05-30T17:52:02Z</time>
      </trkpt>
      <trkpt lat="59.8542054" lon="17.6402004">
        <ele>6.38586</ele>
        <time>2012-05-30T17:52:08Z</time>
      </trkpt>
      <trkpt lat="59.8540895" lon="17.6397622">
        <ele>7.82788</ele>
        <time>2012-05-30T17:52:15Z</time>
      </trkpt>
      <trkpt lat="59.8539796" lon="17.6393882">
        <ele>6.38586</ele>
        <time>2012-05-30T17:52:21Z</time>
      </trkpt>
      <trkpt lat="59.8538703" lon="17.6391449">
        <ele>5.42456</ele>
        <time>2012-05-30T17:52:26Z</time>
      </trkpt>
      <trkpt lat="59.8536958" lon="17.6392322">
        <ele>4.46326</ele>
        <time>2012-05-30T17:52:31Z</time>
      </trkpt>
      <trkpt lat="59.8533869" lon="17.6395416">
        <ele>3.02124</ele>
        <time>2012-05-30T17:52:37Z</time>
      </trkpt>
      <trkpt lat="59.8532518" lon="17.6397037">
        <ele>0.618042</ele>
        <time>2012-05-30T17:52:40Z</time>
      </trkpt>
      <trkpt lat="59.8529151" lon="17.6400244">
        <ele>0.618042</ele>
        <time>2012-05-30T17:52:46Z</time>
      </trkpt>
      <trkpt lat="59.8524904" lon="17.6405036">
        <ele>1.57935</ele>
        <time>2012-05-30T17:52:53Z</time>
      </trkpt>
      <trkpt lat="59.8520112" lon="17.6410966">
        <ele>1.57935</ele>
        <time>2012-05-30T17:53:01Z</time>
      </trkpt>
      <trkpt lat="59.851581" lon="17.6415891">
        <ele>4.46326</ele>
        <time>2012-05-30T17:53:08Z</time>
      </trkpt>
      <trkpt lat="59.8513495" lon="17.6418846">
        <ele>4.46326</ele>
        <time>2012-05-30T17:53:12Z</time>
      </trkpt>
      <trkpt lat="59.8509263" lon="17.6423714">
        <ele>5.90527</ele>
        <time>2012-05-30T17:53:19Z</time>
      </trkpt>
      <trkpt lat="59.8505899" lon="17.6428082">
        <ele>5.42456</ele>
        <time>2012-05-30T17:53:25Z</time>
      </trkpt>
      <trkpt lat="59.8501747" lon="17.6432327">
        <ele>6.86646</ele>
        <time>2012-05-30T17:53:32Z</time>
      </trkpt>
      <trkpt lat="59.8498815" lon="17.6435498">
        <ele>7.34717</ele>
        <time>2012-05-30T17:53:38Z</time>
      </trkpt>
      <trkpt lat="59.8498142" lon="17.643652">
        <ele>6.86646</ele>
        <time>2012-05-30T17:53:40Z</time>
      </trkpt>
      <trkpt lat="59.8495098" lon="17.643861">
        <ele>7.34717</ele>
        <time>2012-05-30T17:53:47Z</time>
      </trkpt>
      <trkpt lat="59.8494641" lon="17.6438882">
        <ele>7.34717</ele>
        <time>2012-05-30T17:53:48Z</time>
      </trkpt>
      <trkpt lat="59.8491654" lon="17.6440053">
        <ele>5.90527</ele>
        <time>2012-05-30T17:53:55Z</time>
      </trkpt>
      <trkpt lat="59.8488726" lon="17.6440447">
        <ele>5.90527</ele>
        <time>2012-05-30T17:54:02Z</time>
      </trkpt>
      <trkpt lat="59.8487959" lon="17.6440639">
        <ele>5.42456</ele>
        <time>2012-05-30T17:54:04Z</time>
      </trkpt>
      <trkpt lat="59.848665" lon="17.6442498">
        <ele>4.46326</ele>
        <time>2012-05-30T17:54:08Z</time>
      </trkpt>
      <trkpt lat="59.8486437" lon="17.6443428">
        <ele>4.94385</ele>
        <time>2012-05-30T17:54:09Z</time>
      </trkpt>
      <trkpt lat="59.8485755" lon="17.6446569">
        <ele>4.46326</ele>
        <time>2012-05-30T17:54:12Z</time>
      </trkpt>
      <trkpt lat="59.8483877" lon="17.6450506">
        <ele>1.57935</ele>
        <time>2012-05-30T17:54:16Z</time>
      </trkpt>
      <trkpt lat="59.8480137" lon="17.6454914">
        <ele>0</ele>
        <time>2012-05-30T17:54:22Z</time>
      </trkpt>
      <trkpt lat="59.8476536" lon="17.6459493">
        <ele>0</ele>
        <time>2012-05-30T17:54:28Z</time>
      </trkpt>
      <trkpt lat="59.8474629" lon="17.6462173">
        <ele>0</ele>
        <time>2012-05-30T17:54:32Z</time>
      </trkpt>
      <trkpt lat="59.8474305" lon="17.6463623">
        <ele>2.06006</ele>
        <time>2012-05-30T17:54:36Z</time>
      </trkpt>
      <trkpt lat="59.8474921" lon="17.6463607">
        <ele>3.50195</ele>
        <time>2012-05-30T17:54:40Z</time>
      </trkpt>
      <trkpt lat="59.8475138" lon="17.6463304">
        <ele>3.98267</ele>
        <time>2012-05-30T17:54:41Z</time>
      </trkpt>
      <trkpt lat="59.8476469" lon="17.6461731">
        <ele>5.90527</ele>
        <time>2012-05-30T17:54:47Z</time>
      </trkpt>
      <trkpt lat="59.8477827" lon="17.6459939">
        <ele>6.86646</ele>
        <time>2012-05-30T17:54:53Z</time>
      </trkpt>
      <trkpt lat="59.8479717" lon="17.645765">
        <ele>9.75061</ele>
        <time>2012-05-30T17:55:01Z</time>
      </trkpt>
      <trkpt lat="59.848036" lon="17.6456411">
        <ele>9.75061</ele>
        <time>2012-05-30T17:55:06Z</time>
      </trkpt>
      <trkpt lat="59.8481095" lon="17.6455433">
        <ele>9.75061</ele>
        <time>2012-05-30T17:55:11Z</time>
      </trkpt>
      <trkpt lat="59.848187" lon="17.6454467">
        <ele>9.2699</ele>
        <time>2012-05-30T17:55:14Z</time>
      </trkpt>
      <trkpt lat="59.8482564" lon="17.6454385">
        <ele>9.2699</ele>
        <time>2012-05-30T17:55:19Z</time>
      </trkpt>
      <trkpt lat="59.8482696" lon="17.6454399">
        <ele>11.1925</ele>
        <time>2012-05-30T17:55:25Z</time>
      </trkpt>
      <trkpt lat="59.8482649" lon="17.6454193">
        <ele>6.38586</ele>
        <time>2012-05-30T17:55:34Z</time>
      </trkpt>
    </trkseg>
  </trk>
</gpx>